sensor_id;sensor_type;location;lat;lon;timestamp;pressure;altitude;pressure_sealevel;temperature;humidity
9740;BME280;4909;42.680;26.324;2023-02-16T00:01:01;99948.16;;;4.78;78.97
9740;BME280;4909;42.680;26.324;2023-02-16T00:03:27;99947.25;;;4.93;79.04
9740;BME280;4909;42.680;26.324;2023-02-16T00:05:54;99952.50;;;5.02;78.86
9740;BME280;4909;42.680;26.324;2023-02-16T00:08:21;99950.75;;;4.87;79.21
9740;BME280;4909;42.680;26.324;2023-02-16T00:10:48;99922.72;;;4.72;79.40
9740;BME280;4909;42.680;26.324;2023-02-16T00:13:29;99948.16;;;4.84;79.23
9740;BME280;4909;42.680;26.324;2023-02-16T00:16:18;99938.50;;;4.53;80.78
9740;BME280;4909;42.680;26.324;2023-02-16T00:18:46;99940.25;;;4.52;81.49
9740;BME280;4909;42.680;26.324;2023-02-16T00:21:13;99946.38;;;4.68;80.84
9740;BME280;4909;42.680;26.324;2023-02-16T00:23:40;99923.59;;;4.68;80.61
9740;BME280;4909;42.680;26.324;2023-02-16T00:26:13;99948.13;;;4.96;79.69
9740;BME280;4909;42.680;26.324;2023-02-16T00:28:41;99956.00;;;5.01;78.95
9740;BME280;4909;42.680;26.324;2023-02-16T00:31:15;99955.13;;;5.06;78.24
9740;BME280;4909;42.680;26.324;2023-02-16T00:33:43;99953.34;;;5.08;77.60
9740;BME280;4909;42.680;26.324;2023-02-16T00:36:10;99948.13;;;4.93;78.28
9740;BME280;4909;42.680;26.324;2023-02-16T00:38:36;99953.38;;;4.96;78.56
9740;BME280;4909;42.680;26.324;2023-02-16T00:41:04;99946.38;;;5.01;78.04
9740;BME280;4909;42.680;26.324;2023-02-16T00:43:51;99949.00;;;4.92;78.72
9740;BME280;4909;42.680;26.324;2023-02-16T00:46:21;99944.63;;;4.82;79.00
9740;BME280;4909;42.680;26.324;2023-02-16T00:48:48;99938.50;;;4.88;79.47
9740;BME280;4909;42.680;26.324;2023-02-16T00:51:14;99941.97;;;4.94;78.74
9740;BME280;4909;42.680;26.324;2023-02-16T00:53:41;99900.81;;;4.78;78.50
9740;BME280;4909;42.680;26.324;2023-02-16T00:56:09;99942.88;;;4.93;78.79
9740;BME280;4909;42.680;26.324;2023-02-16T00:58:38;99946.38;;;4.83;79.31
9740;BME280;4909;42.680;26.324;2023-02-16T01:01:10;99943.75;;;4.77;79.94
9740;BME280;4909;42.680;26.324;2023-02-16T01:03:40;99933.25;;;4.72;80.38
9740;BME280;4909;42.680;26.324;2023-02-16T01:06:08;99928.84;;;4.61;80.57
9740;BME280;4909;42.680;26.324;2023-02-16T01:08:54;99932.34;;;4.70;81.77
9740;BME280;4909;42.680;26.324;2023-02-16T01:11:39;99929.72;;;4.75;80.71
9740;BME280;4909;42.680;26.324;2023-02-16T01:14:09;99924.44;;;4.79;80.61
9740;BME280;4909;42.680;26.324;2023-02-16T01:16:39;99928.88;;;4.59;80.56
9740;BME280;4909;42.680;26.324;2023-02-16T01:19:12;99886.78;;;4.24;82.04
9740;BME280;4909;42.680;26.324;2023-02-16T01:21:39;99921.81;;;4.51;81.72
9740;BME280;4909;42.680;26.324;2023-02-16T01:24:06;99920.97;;;4.59;81.79
9740;BME280;4909;42.680;26.324;2023-02-16T01:26:37;99924.47;;;4.76;80.94
9740;BME280;4909;42.680;26.324;2023-02-16T01:29:04;99915.69;;;4.82;80.74
9740;BME280;4909;42.680;26.324;2023-02-16T01:31:31;99918.31;;;4.91;79.64
9740;BME280;4909;42.680;26.324;2023-02-16T01:33:57;99917.44;;;4.98;79.28
9740;BME280;4909;42.680;26.324;2023-02-16T01:36:28;99906.06;;;4.78;79.82
9740;BME280;4909;42.680;26.324;2023-02-16T01:38:56;99903.41;;;4.75;79.50
9740;BME280;4909;42.680;26.324;2023-02-16T01:41:36;99902.53;;;4.76;79.61
9740;BME280;4909;42.680;26.324;2023-02-16T01:44:11;99903.41;;;4.70;80.16
9740;BME280;4909;42.680;26.324;2023-02-16T01:46:43;99902.56;;;4.77;79.57
9740;BME280;4909;42.680;26.324;2023-02-16T01:49:13;99905.19;;;4.88;79.39
9740;BME280;4909;42.680;26.324;2023-02-16T01:51:52;99892.91;;;4.89;79.78
9740;BME280;4909;42.680;26.324;2023-02-16T01:54:34;99888.50;;;4.80;79.39
9740;BME280;4909;42.680;26.324;2023-02-16T01:57:04;99905.16;;;4.96;78.97
9740;BME280;4909;42.680;26.324;2023-02-16T01:59:40;99900.78;;;4.87;79.29
9740;BME280;4909;42.680;26.324;2023-02-16T02:02:33;99899.03;;;4.72;79.59
9740;BME280;4909;42.680;26.324;2023-02-16T02:05:06;99905.19;;;4.52;80.72
9740;BME280;4909;42.680;26.324;2023-02-16T02:07:57;99899.06;;;4.53;81.55
9740;BME280;4909;42.680;26.324;2023-02-16T02:10:32;99897.28;;;4.67;80.32
9740;BME280;4909;42.680;26.324;2023-02-16T02:13:04;99902.56;;;4.61;80.01
9740;BME280;4909;42.680;26.324;2023-02-16T02:15:33;99900.81;;;4.34;81.48
9740;BME280;4909;42.680;26.324;2023-02-16T02:18:00;99904.31;;;4.25;82.18
9740;BME280;4909;42.680;26.324;2023-02-16T02:20:33;99902.56;;;4.29;82.34
9740;BME280;4909;42.680;26.324;2023-02-16T02:23:37;99888.53;;;4.33;82.38
9740;BME280;4909;42.680;26.324;2023-02-16T02:26:50;99910.47;;;4.55;81.33
9740;BME280;4909;42.680;26.324;2023-02-16T02:29:31;99899.06;;;4.53;81.20
9740;BME280;4909;42.680;26.324;2023-02-16T02:32:10;99906.06;;;4.67;80.59
9740;BME280;4909;42.680;26.324;2023-02-16T02:34:52;99910.44;;;4.71;80.81
9740;BME280;4909;42.680;26.324;2023-02-16T02:37:30;99908.69;;;4.73;80.50
9740;BME280;4909;42.680;26.324;2023-02-16T02:40:05;99917.44;;;4.81;79.75
9740;BME280;4909;42.680;26.324;2023-02-16T02:42:39;99909.59;;;4.54;80.31
9740;BME280;4909;42.680;26.324;2023-02-16T02:45:10;99916.59;;;4.73;80.52
9740;BME280;4909;42.680;26.324;2023-02-16T02:47:40;99911.28;;;4.95;79.45
9740;BME280;4909;42.680;26.324;2023-02-16T02:50:40;99915.69;;;4.71;79.63
9740;BME280;4909;42.680;26.324;2023-02-16T02:53:30;99909.56;;;4.68;79.76
9740;BME280;4909;42.680;26.324;2023-02-16T02:55:58;99912.19;;;4.66;79.45
9740;BME280;4909;42.680;26.324;2023-02-16T02:58:47;99912.22;;;4.50;80.43
9740;BME280;4909;42.680;26.324;2023-02-16T03:01:34;99917.44;;;4.51;80.73
9740;BME280;4909;42.680;26.324;2023-02-16T03:04:03;99914.84;;;4.59;80.57
9740;BME280;4909;42.680;26.324;2023-02-16T03:06:33;99909.56;;;4.56;80.36
9740;BME280;4909;42.680;26.324;2023-02-16T03:09:06;99914.84;;;4.59;80.48
9740;BME280;4909;42.680;26.324;2023-02-16T03:11:36;99905.19;;;4.43;81.03
9740;BME280;4909;42.680;26.324;2023-02-16T03:14:25;99905.19;;;4.29;82.10
9740;BME280;4909;42.680;26.324;2023-02-16T03:16:55;99913.06;;;4.15;82.95
9740;BME280;4909;42.680;26.324;2023-02-16T03:19:42;99906.06;;;4.28;82.98
9740;BME280;4909;42.680;26.324;2023-02-16T03:22:27;99906.91;;;4.36;82.84
9740;BME280;4909;42.680;26.324;2023-02-16T03:25:12;99909.53;;;4.27;81.72
9740;BME280;4909;42.680;26.324;2023-02-16T03:27:59;99908.69;;;4.46;81.36
9740;BME280;4909;42.680;26.324;2023-02-16T03:30:46;99913.97;;;4.49;81.69
9740;BME280;4909;42.680;26.324;2023-02-16T03:33:13;99912.19;;;4.68;81.18
9740;BME280;4909;42.680;26.324;2023-02-16T03:35:41;99911.28;;;4.79;80.43
9740;BME280;4909;42.680;26.324;2023-02-16T03:38:08;99906.94;;;4.68;80.13
9740;BME280;4909;42.680;26.324;2023-02-16T03:40:36;99910.47;;;4.44;80.95
9740;BME280;4909;42.680;26.324;2023-02-16T03:43:06;99915.69;;;4.20;82.33
9740;BME280;4909;42.680;26.324;2023-02-16T03:45:36;99888.50;;;3.98;82.97
9740;BME280;4909;42.680;26.324;2023-02-16T03:48:06;99912.97;;;3.79;84.67
9740;BME280;4909;42.680;26.324;2023-02-16T03:50:33;99910.41;;;4.05;84.46
9740;BME280;4909;42.680;26.324;2023-02-16T03:52:59;99906.03;;;4.26;83.41
9740;BME280;4909;42.680;26.324;2023-02-16T03:55:33;99912.19;;;4.39;82.37
9740;BME280;4909;42.680;26.324;2023-02-16T03:58:00;99904.31;;;4.51;81.36
9740;BME280;4909;42.680;26.324;2023-02-16T04:00:27;99906.91;;;4.31;81.63
9740;BME280;4909;42.680;26.324;2023-02-16T04:02:54;99906.91;;;4.41;81.77
9740;BME280;4909;42.680;26.324;2023-02-16T04:05:22;99910.44;;;4.11;82.71
9740;BME280;4909;42.680;26.324;2023-02-16T04:07:48;99910.41;;;4.06;83.50
9740;BME280;4909;42.680;26.324;2023-02-16T04:10:15;99904.28;;;4.10;83.46
9740;BME280;4909;42.680;26.324;2023-02-16T04:12:42;99901.69;;;4.21;82.63
9740;BME280;4909;42.680;26.324;2023-02-16T04:15:11;99901.69;;;4.30;82.87
9740;BME280;4909;42.680;26.324;2023-02-16T04:17:38;99899.06;;;4.21;82.83
9740;BME280;4909;42.680;26.324;2023-02-16T04:20:08;99912.16;;;4.12;82.94
9740;BME280;4909;42.680;26.324;2023-02-16T04:22:36;99901.66;;;4.09;83.93
9740;BME280;4909;42.680;26.324;2023-02-16T04:25:04;99901.69;;;4.30;83.05
9740;BME280;4909;42.680;26.324;2023-02-16T04:27:31;99899.06;;;4.44;82.44
9740;BME280;4909;42.680;26.324;2023-02-16T04:29:58;99904.31;;;4.50;81.75
9740;BME280;4909;42.680;26.324;2023-02-16T04:32:25;99901.66;;;4.19;82.68
9740;BME280;4909;42.680;26.324;2023-02-16T04:34:52;99906.94;;;4.21;83.22
9740;BME280;4909;42.680;26.324;2023-02-16T04:37:18;99908.69;;;4.28;83.11
9740;BME280;4909;42.680;26.324;2023-02-16T04:39:46;99909.56;;;4.37;82.52
9740;BME280;4909;42.680;26.324;2023-02-16T04:42:13;99910.44;;;4.29;82.27
9740;BME280;4909;42.680;26.324;2023-02-16T04:44:40;99912.19;;;4.25;81.30
9740;BME280;4909;42.680;26.324;2023-02-16T04:47:07;99906.06;;;4.29;81.67
9740;BME280;4909;42.680;26.324;2023-02-16T04:49:33;99916.56;;;4.20;82.26
9740;BME280;4909;42.680;26.324;2023-02-16T04:52:00;99907.78;;;4.21;82.42
9740;BME280;4909;42.680;26.324;2023-02-16T04:54:28;99920.91;;;4.08;82.89
9740;BME280;4909;42.680;26.324;2023-02-16T04:56:56;99918.22;;;3.88;84.42
9740;BME280;4909;42.680;26.324;2023-02-16T04:59:23;99913.88;;;3.94;84.00
9740;BME280;4909;42.680;26.324;2023-02-16T05:01:50;99924.31;;;3.69;84.54
9740;BME280;4909;42.680;26.324;2023-02-16T05:04:17;99925.22;;;3.77;84.81
9740;BME280;4909;42.680;26.324;2023-02-16T05:06:44;99919.13;;;3.94;84.73
9740;BME280;4909;42.680;26.324;2023-02-16T05:09:11;99919.16;;;4.04;83.88
9740;BME280;4909;42.680;26.324;2023-02-16T05:11:38;99901.59;;;3.72;83.94
9740;BME280;4909;42.680;26.324;2023-02-16T05:14:25;99922.63;;;3.93;85.32
9740;BME280;4909;42.680;26.324;2023-02-16T05:17:12;99919.19;;;4.19;83.95
9740;BME280;4909;42.680;26.324;2023-02-16T05:19:40;99925.34;;;4.39;83.17
9740;BME280;4909;42.680;26.324;2023-02-16T05:22:08;99920.97;;;4.47;82.32
9740;BME280;4909;42.680;26.324;2023-02-16T05:24:35;99933.25;;;4.54;81.38
9740;BME280;4909;42.680;26.324;2023-02-16T05:27:02;99934.94;;;4.17;81.67
9740;BME280;4909;42.680;26.324;2023-02-16T05:29:31;99944.53;;;4.03;82.74
9740;BME280;4909;42.680;26.324;2023-02-16T05:31:58;99944.56;;;4.08;82.38
9740;BME280;4909;42.680;26.324;2023-02-16T05:34:25;99947.19;;;4.05;83.18
9740;BME280;4909;42.680;26.324;2023-02-16T05:36:52;99944.59;;;4.18;82.57
9740;BME280;4909;42.680;26.324;2023-02-16T05:39:19;99948.09;;;4.31;82.16
9740;BME280;4909;42.680;26.324;2023-02-16T05:41:46;99951.59;;;4.36;81.77
9740;BME280;4909;42.680;26.324;2023-02-16T05:44:14;99955.97;;;4.26;82.13
9740;BME280;4909;42.680;26.324;2023-02-16T05:46:43;99958.59;;;4.26;82.38
9740;BME280;4909;42.680;26.324;2023-02-16T05:49:11;99965.66;;;4.49;81.96
9740;BME280;4909;42.680;26.324;2023-02-16T05:51:38;99963.03;;;4.61;81.00
9740;BME280;4909;42.680;26.324;2023-02-16T05:54:05;99968.31;;;4.79;80.02
9740;BME280;4909;42.680;26.324;2023-02-16T05:56:32;99977.06;;;4.90;79.58
9740;BME280;4909;42.680;26.324;2023-02-16T05:58:59;99975.28;;;5.09;78.70
9740;BME280;4909;42.680;26.324;2023-02-16T06:01:26;99939.19;;;5.65;75.71
9740;BME280;4909;42.680;26.324;2023-02-16T06:03:55;99985.44;;;7.37;69.20
9740;BME280;4909;42.680;26.324;2023-02-16T06:06:21;99991.44;;;8.26;63.02
9740;BME280;4909;42.680;26.324;2023-02-16T06:08:48;99993.81;;;9.53;58.05
9740;BME280;4909;42.680;26.324;2023-02-16T06:11:15;99994.84;;;10.35;53.84
9740;BME280;4909;42.680;26.324;2023-02-16T06:13:59;99995.91;;;11.02;50.75
9740;BME280;4909;42.680;26.324;2023-02-16T06:16:28;99991.63;;;11.30;49.50
9740;BME280;4909;42.680;26.324;2023-02-16T06:18:56;99991.13;;;11.50;48.77
9740;BME280;4909;42.680;26.324;2023-02-16T06:21:24;99994.06;;;11.71;47.13
9740;BME280;4909;42.680;26.324;2023-02-16T06:23:51;99996.28;;;11.88;46.35
9740;BME280;4909;42.680;26.324;2023-02-16T06:26:18;99992.06;;;12.12;46.12
9740;BME280;4909;42.680;26.324;2023-02-16T06:28:44;99992.84;;;13.00;43.87
9740;BME280;4909;42.680;26.324;2023-02-16T06:31:11;99985.88;;;13.99;41.41
9740;BME280;4909;42.680;26.324;2023-02-16T06:33:38;99988.94;;;13.38;41.32
9740;BME280;4909;42.680;26.324;2023-02-16T06:36:07;99987.53;;;13.78;41.03
9740;BME280;4909;42.680;26.324;2023-02-16T06:38:34;99993.00;;;14.46;40.28
9740;BME280;4909;42.680;26.324;2023-02-16T06:41:01;99996.13;;;14.79;38.29
9740;BME280;4909;42.680;26.324;2023-02-16T06:43:28;99995.47;;;14.96;38.11
9740;BME280;4909;42.680;26.324;2023-02-16T06:45:55;99992.72;;;15.61;36.43
9740;BME280;4909;42.680;26.324;2023-02-16T06:48:21;99994.41;;;16.02;35.41
9740;BME280;4909;42.680;26.324;2023-02-16T06:50:48;99972.97;;;16.23;34.59
9740;BME280;4909;42.680;26.324;2023-02-16T06:53:16;99996.16;;;16.99;33.54
9740;BME280;4909;42.680;26.324;2023-02-16T06:55:44;99997.13;;;17.15;33.04
9740;BME280;4909;42.680;26.324;2023-02-16T06:58:11;99992.25;;;17.76;32.29
9740;BME280;4909;42.680;26.324;2023-02-16T07:00:38;99995.00;;;18.40;30.92
9740;BME280;4909;42.680;26.324;2023-02-16T07:03:05;100000.38;;;19.20;30.27
9740;BME280;4909;42.680;26.324;2023-02-16T07:05:32;99994.00;;;19.96;29.01
9740;BME280;4909;42.680;26.324;2023-02-16T07:07:59;99992.69;;;20.60;28.13
9740;BME280;4909;42.680;26.324;2023-02-16T07:10:27;99990.00;;;20.32;28.02
9740;BME280;4909;42.680;26.324;2023-02-16T07:13:14;99996.28;;;20.88;27.33
9740;BME280;4909;42.680;26.324;2023-02-16T07:15:41;99992.84;;;21.12;27.14
9740;BME280;4909;42.680;26.324;2023-02-16T07:18:08;99990.47;;;21.74;25.99
9740;BME280;4909;42.680;26.324;2023-02-16T07:20:35;99993.16;;;21.74;26.12
9740;BME280;4909;42.680;26.324;2023-02-16T07:23:02;99967.06;;;21.48;25.92
9740;BME280;4909;42.680;26.324;2023-02-16T07:25:30;99963.59;;;22.36;25.55
9740;BME280;4909;42.680;26.324;2023-02-16T07:27:57;99993.31;;;23.34;24.64
9740;BME280;4909;42.680;26.324;2023-02-16T07:30:23;99989.66;;;22.75;24.91
9740;BME280;4909;42.680;26.324;2023-02-16T07:32:50;99985.84;;;23.37;24.03
9740;BME280;4909;42.680;26.324;2023-02-16T07:35:17;99987.97;;;23.45;23.68
9740;BME280;4909;42.680;26.324;2023-02-16T07:37:44;99990.53;;;23.70;23.72
9740;BME280;4909;42.680;26.324;2023-02-16T07:40:11;99981.44;;;23.82;23.46
9740;BME280;4909;42.680;26.324;2023-02-16T07:42:39;99990.28;;;23.62;23.22
9740;BME280;4909;42.680;26.324;2023-02-16T07:45:07;99982.28;;;23.01;23.68
9740;BME280;4909;42.680;26.324;2023-02-16T07:47:34;99979.31;;;23.40;23.62
9740;BME280;4909;42.680;26.324;2023-02-16T07:50:01;99971.63;;;23.10;23.74
9740;BME280;4909;42.680;26.324;2023-02-16T07:52:27;99971.88;;;22.71;23.98
9740;BME280;4909;42.680;26.324;2023-02-16T07:54:55;99979.19;;;23.18;23.77
9740;BME280;4909;42.680;26.324;2023-02-16T07:57:22;99980.25;;;23.28;23.14
9740;BME280;4909;42.680;26.324;2023-02-16T07:59:51;99973.31;;;22.51;23.85
9740;BME280;4909;42.680;26.324;2023-02-16T08:02:18;99973.22;;;21.50;24.65
9740;BME280;4909;42.680;26.324;2023-02-16T08:04:46;99975.88;;;19.70;27.30
9740;BME280;4909;42.680;26.324;2023-02-16T08:07:13;99978.66;;;19.69;27.25
9740;BME280;4909;42.680;26.324;2023-02-16T08:09:40;99970.84;;;20.77;26.48
9740;BME280;4909;42.680;26.324;2023-02-16T08:12:08;99969.72;;;23.00;23.51
9740;BME280;4909;42.680;26.324;2023-02-16T08:14:35;99972.28;;;23.72;23.04
9740;BME280;4909;42.680;26.324;2023-02-16T08:17:05;99970.38;;;23.27;23.08
9740;BME280;4909;42.680;26.324;2023-02-16T08:19:32;99962.13;;;23.98;22.49
9740;BME280;4909;42.680;26.324;2023-02-16T08:22:02;99961.75;;;23.80;22.48
9740;BME280;4909;42.680;26.324;2023-02-16T08:24:28;99966.44;;;23.90;22.71
9740;BME280;4909;42.680;26.324;2023-02-16T08:26:55;99962.38;;;23.95;22.47
9740;BME280;4909;42.680;26.324;2023-02-16T08:29:23;99960.53;;;23.96;22.52
9740;BME280;4909;42.680;26.324;2023-02-16T08:31:50;99964.72;;;23.54;22.89
9740;BME280;4909;42.680;26.324;2023-02-16T08:34:19;99958.28;;;21.32;24.74
9740;BME280;4909;42.680;26.324;2023-02-16T08:36:51;99954.63;;;22.10;24.55
9740;BME280;4909;42.680;26.324;2023-02-16T08:39:22;99953.88;;;23.06;23.55
9740;BME280;4909;42.680;26.324;2023-02-16T08:41:49;99914.19;;;22.58;23.88
9740;BME280;4909;42.680;26.324;2023-02-16T08:44:17;99954.47;;;23.46;22.92
9740;BME280;4909;42.680;26.324;2023-02-16T08:46:46;99959.19;;;23.55;22.99
9740;BME280;4909;42.680;26.324;2023-02-16T08:49:14;99954.38;;;24.05;22.50
9740;BME280;4909;42.680;26.324;2023-02-16T08:51:45;99950.50;;;24.42;21.95
9740;BME280;4909;42.680;26.324;2023-02-16T08:54:15;99963.97;;;23.98;21.80
9740;BME280;4909;42.680;26.324;2023-02-16T08:56:42;99963.44;;;23.70;22.42
9740;BME280;4909;42.680;26.324;2023-02-16T08:59:11;99962.47;;;23.82;22.26
9740;BME280;4909;42.680;26.324;2023-02-16T09:01:38;99964.72;;;24.11;22.06
9740;BME280;4909;42.680;26.324;2023-02-16T09:04:06;99961.22;;;23.75;22.44
9740;BME280;4909;42.680;26.324;2023-02-16T09:06:36;99958.72;;;22.41;23.68
9740;BME280;4909;42.680;26.324;2023-02-16T09:09:04;99958.88;;;22.63;23.52
9740;BME280;4909;42.680;26.324;2023-02-16T09:11:33;99958.59;;;21.27;24.95
9740;BME280;4909;42.680;26.324;2023-02-16T09:14:00;99958.72;;;21.11;25.33
9740;BME280;4909;42.680;26.324;2023-02-16T09:16:29;99958.94;;;22.00;25.00
9740;BME280;4909;42.680;26.324;2023-02-16T09:18:58;99966.75;;;22.04;24.81
9740;BME280;4909;42.680;26.324;2023-02-16T09:21:27;99960.69;;;22.14;24.52
9740;BME280;4909;42.680;26.324;2023-02-16T09:23:57;99956.69;;;21.42;25.39
9740;BME280;4909;42.680;26.324;2023-02-16T09:26:30;99956.47;;;21.45;25.71
9740;BME280;4909;42.680;26.324;2023-02-16T09:28:56;99956.19;;;20.96;26.33
9740;BME280;4909;42.680;26.324;2023-02-16T09:31:25;99957.72;;;20.45;26.50
9740;BME280;4909;42.680;26.324;2023-02-16T09:33:54;99956.63;;;20.05;27.30
9740;BME280;4909;42.680;26.324;2023-02-16T09:36:22;99961.56;;;19.84;27.76
9740;BME280;4909;42.680;26.324;2023-02-16T09:38:49;99957.25;;;18.90;29.20
9740;BME280;4909;42.680;26.324;2023-02-16T09:41:24;99964.13;;;18.80;29.06
9740;BME280;4909;42.680;26.324;2023-02-16T09:43:57;99960.06;;;17.57;31.16
9740;BME280;4909;42.680;26.324;2023-02-16T09:46:25;99953.75;;;17.41;31.45
9740;BME280;4909;42.680;26.324;2023-02-16T09:48:54;99954.41;;;16.56;32.98
9740;BME280;4909;42.680;26.324;2023-02-16T09:51:26;99948.78;;;16.43;33.15
9740;BME280;4909;42.680;26.324;2023-02-16T09:53:57;99949.94;;;16.19;34.11
9740;BME280;4909;42.680;26.324;2023-02-16T09:56:28;99938.94;;;16.06;34.30
9740;BME280;4909;42.680;26.324;2023-02-16T09:59:03;99938.75;;;15.90;34.75
9740;BME280;4909;42.680;26.324;2023-02-16T10:01:38;99938.66;;;15.73;35.55
9740;BME280;4909;42.680;26.324;2023-02-16T10:04:24;99932.88;;;15.42;35.95
9740;BME280;4909;42.680;26.324;2023-02-16T10:07:02;99934.97;;;14.93;36.95
9740;BME280;4909;42.680;26.324;2023-02-16T10:09:35;99935.31;;;15.06;36.11
9740;BME280;4909;42.680;26.324;2023-02-16T10:12:05;99933.59;;;14.83;36.91
9740;BME280;4909;42.680;26.324;2023-02-16T10:14:39;99927.78;;;14.52;37.74
9740;BME280;4909;42.680;26.324;2023-02-16T10:17:14;99925.44;;;13.23;40.58
9740;BME280;4909;42.680;26.324;2023-02-16T10:19:46;99924.16;;;13.35;41.00
9740;BME280;4909;42.680;26.324;2023-02-16T10:22:19;99917.09;;;13.59;39.29
9740;BME280;4909;42.680;26.324;2023-02-16T10:24:56;99916.56;;;13.96;38.73
9740;BME280;4909;42.680;26.324;2023-02-16T10:27:30;99916.47;;;13.99;38.76
9740;BME280;4909;42.680;26.324;2023-02-16T10:29:59;99859.44;;;13.55;38.47
9740;BME280;4909;42.680;26.324;2023-02-16T10:32:27;99910.09;;;13.79;38.57
9740;BME280;4909;42.680;26.324;2023-02-16T10:35:09;99906.47;;;13.80;39.09
9740;BME280;4909;42.680;26.324;2023-02-16T10:37:54;99901.53;;;14.16;38.91
9740;BME280;4909;42.680;26.324;2023-02-16T10:40:32;99892.00;;;14.09;38.71
9740;BME280;4909;42.680;26.324;2023-02-16T10:43:05;99902.00;;;14.27;37.57
9740;BME280;4909;42.680;26.324;2023-02-16T10:45:43;99891.91;;;14.12;37.84
9740;BME280;4909;42.680;26.324;2023-02-16T10:48:12;99898.88;;;14.16;38.45
9740;BME280;4909;42.680;26.324;2023-02-16T10:50:41;99889.66;;;14.23;37.79
9740;BME280;4909;42.680;26.324;2023-02-16T10:53:13;99892.19;;;14.05;38.45
9740;BME280;4909;42.680;26.324;2023-02-16T10:55:41;99890.41;;;14.05;38.78
9740;BME280;4909;42.680;26.324;2023-02-16T10:58:17;99892.38;;;14.00;39.31
9740;BME280;4909;42.680;26.324;2023-02-16T11:00:52;99870.09;;;14.01;38.66
9740;BME280;4909;42.680;26.324;2023-02-16T11:03:25;99891.75;;;14.17;38.79
9740;BME280;4909;42.680;26.324;2023-02-16T11:05:55;99879.31;;;14.16;37.22
9740;BME280;4909;42.680;26.324;2023-02-16T11:08:21;99881.16;;;14.14;37.61
9740;BME280;4909;42.680;26.324;2023-02-16T11:10:52;99880.75;;;13.79;37.74
9740;BME280;4909;42.680;26.324;2023-02-16T11:13:24;99877.94;;;13.59;38.34
9740;BME280;4909;42.680;26.324;2023-02-16T11:15:55;99853.41;;;12.74;40.97
9740;BME280;4909;42.680;26.324;2023-02-16T11:18:33;99865.91;;;13.23;39.98
9740;BME280;4909;42.680;26.324;2023-02-16T11:21:02;99868.66;;;12.95;39.93
9740;BME280;4909;42.680;26.324;2023-02-16T11:23:31;99863.38;;;12.93;40.73
9740;BME280;4909;42.680;26.324;2023-02-16T11:26:02;99865.47;;;13.10;40.53
9740;BME280;4909;42.680;26.324;2023-02-16T11:28:32;99865.28;;;13.16;39.65
9740;BME280;4909;42.680;26.324;2023-02-16T11:31:08;99854.38;;;13.47;38.84
9740;BME280;4909;42.680;26.324;2023-02-16T11:33:38;99853.75;;;13.64;37.85
9740;BME280;4909;42.680;26.324;2023-02-16T11:36:18;99842.88;;;13.91;37.12
9740;BME280;4909;42.680;26.324;2023-02-16T11:38:56;99848.63;;;13.34;37.21
9740;BME280;4909;42.680;26.324;2023-02-16T11:41:25;99819.03;;;12.92;36.87
9740;BME280;4909;42.680;26.324;2023-02-16T11:43:54;99833.94;;;13.23;36.89
9740;BME280;4909;42.680;26.324;2023-02-16T11:46:23;99831.38;;;13.44;36.05
9740;BME280;4909;42.680;26.324;2023-02-16T11:48:50;99828.13;;;13.60;36.63
9740;BME280;4909;42.680;26.324;2023-02-16T11:51:29;99824.34;;;13.88;35.03
9740;BME280;4909;42.680;26.324;2023-02-16T11:54:02;99819.50;;;13.75;34.98
9740;BME280;4909;42.680;26.324;2023-02-16T11:56:31;99812.25;;;13.32;34.57
9740;BME280;4909;42.680;26.324;2023-02-16T11:59:07;99813.44;;;13.48;33.27
9740;BME280;4909;42.680;26.324;2023-02-16T12:01:47;99801.69;;;13.75;35.62
9740;BME280;4909;42.680;26.324;2023-02-16T12:04:28;99810.25;;;13.62;35.76
9740;BME280;4909;42.680;26.324;2023-02-16T12:07:05;99799.63;;;13.83;33.96
9740;BME280;4909;42.680;26.324;2023-02-16T12:09:47;99800.25;;;13.67;34.61
9740;BME280;4909;42.680;26.324;2023-02-16T12:12:17;99794.38;;;13.59;34.35
9740;BME280;4909;42.680;26.324;2023-02-16T12:14:55;99800.72;;;13.31;35.13
9740;BME280;4909;42.680;26.324;2023-02-16T12:17:41;99791.09;;;13.27;33.33
9740;BME280;4909;42.680;26.324;2023-02-16T12:20:22;99783.34;;;13.44;31.47
9740;BME280;4909;42.680;26.324;2023-02-16T12:22:55;99780.78;;;13.41;31.76
9740;BME280;4909;42.680;26.324;2023-02-16T12:25:29;99783.97;;;13.28;32.06
9740;BME280;4909;42.680;26.324;2023-02-16T12:28:04;99778.03;;;13.44;31.21
9740;BME280;4909;42.680;26.324;2023-02-16T12:30:47;99776.38;;;13.17;32.22
9740;BME280;4909;42.680;26.324;2023-02-16T12:33:33;99776.16;;;13.46;31.55
9740;BME280;4909;42.680;26.324;2023-02-16T12:36:16;99761.94;;;13.46;32.15
9740;BME280;4909;42.680;26.324;2023-02-16T12:38:56;99759.34;;;13.21;32.06
9740;BME280;4909;42.680;26.324;2023-02-16T12:41:31;99760.63;;;13.34;31.91
9740;BME280;4909;42.680;26.324;2023-02-16T12:44:04;99749.84;;;13.14;31.75
9740;BME280;4909;42.680;26.324;2023-02-16T12:46:36;99746.81;;;13.23;31.10
9740;BME280;4909;42.680;26.324;2023-02-16T12:49:13;99752.09;;;13.00;31.34
9740;BME280;4909;42.680;26.324;2023-02-16T12:51:46;99746.38;;;12.62;32.05
9740;BME280;4909;42.680;26.324;2023-02-16T12:54:17;99753.94;;;12.73;31.84
9740;BME280;4909;42.680;26.324;2023-02-16T12:56:49;99746.72;;;13.01;31.13
9740;BME280;4909;42.680;26.324;2023-02-16T12:59:21;99747.75;;;13.22;31.41
9740;BME280;4909;42.680;26.324;2023-02-16T13:01:51;99742.75;;;12.88;31.80
9740;BME280;4909;42.680;26.324;2023-02-16T13:04:33;99743.63;;;12.89;31.92
9740;BME280;4909;42.680;26.324;2023-02-16T13:07:06;99739.34;;;12.60;32.18
9740;BME280;4909;42.680;26.324;2023-02-16T13:09:48;99732.59;;;12.50;32.26
9740;BME280;4909;42.680;26.324;2023-02-16T13:12:25;99734.06;;;12.34;32.26
9740;BME280;4909;42.680;26.324;2023-02-16T13:15:00;99729.72;;;12.56;31.87
9740;BME280;4909;42.680;26.324;2023-02-16T13:17:32;99727.22;;;12.76;31.31
9740;BME280;4909;42.680;26.324;2023-02-16T13:20:01;99730.44;;;12.61;31.49
9740;BME280;4909;42.680;26.324;2023-02-16T13:22:43;99731.84;;;12.96;30.62
9740;BME280;4909;42.680;26.324;2023-02-16T13:25:41;99721.88;;;13.01;30.23
9740;BME280;4909;42.680;26.324;2023-02-16T13:28:28;99724.88;;;12.92;30.78
9740;BME280;4909;42.680;26.324;2023-02-16T13:31:09;99728.69;;;12.85;31.30
9740;BME280;4909;42.680;26.324;2023-02-16T13:33:50;99723.34;;;12.85;30.91
9740;BME280;4909;42.680;26.324;2023-02-16T13:36:39;99715.28;;;12.63;31.44
9740;BME280;4909;42.680;26.324;2023-02-16T13:39:20;99712.66;;;12.61;31.95